Accueil
METAR-TAF:

METAR-TAF

Aéroports :

Solenzara, France

Base aérienne 126 Solenzara

latitude: 41-55N, longitude: 009-24E, altitude: 8 m

Observation

Le bulletin a été fait il y a 31 minutes, à 21:00 UTC
Vent 3 kt de nord/nord-est, variant entre nord et est
Température 16°C
Humidité 88%
Pression 1008 hPa
Visibilité: 8000 m

METAR: LFKS 262100Z AUTO 03003KT 360V080 8000 NSC 16/14 Q1008

Heure: 23:31 (21:31 UTC)

Prévision

Le bulletin a été fait il y a 7 heures et 31 minutes, à 14:00 UTC
Prévision valable du 26 à 15 UTC au 27 à 15 UTC
Vent 15 kt de sud/sud-est avec des rafales jusqu'à 30 kt
Visibilité 10 km ou plus
pas de nuages en-dessous de 1500 mètres et pas de cumulonimbus.
Evoluant progressivement
du 26 à 18 UTC au 26 à 20 UTC
Vent 5 kt de ouest

TAF: LFKS 261400Z 2615/2715 16015G30KT CAVOK BECMG 2618/2620 26005KT

Observations et prévisions météorologiques de plus de 4000 aéroports (messages METAR et TAF).

Les stations disponibles sont représentées par des disques jaunes et rouges sur la carte.

Passer la souris dessus pour voir le nom de la station.

Cliquer dessus pour voir les observations et prévisions météorologiques.

Pour changer de carte: cliquez sur les boutons verts avec une croix noire pour zoomer, sur le bouton vert avec un tiret pour effectuer un zoom arrière, ou sur les flèches vertes pour les cartes adjacentes.


METAR-TAF: